createdAt,value
2023-01-26T00:00:38.325Z,6.05
2023-01-26T00:02:40.019Z,5.20
2023-01-26T00:04:41.660Z,5.55
2023-01-26T00:06:43.280Z,5.95
2023-01-26T00:08:47.511Z,5.57
2023-01-26T00:10:51.985Z,5.47
2023-01-26T00:12:53.653Z,5.15
2023-01-26T00:14:55.209Z,5.40
2023-01-26T00:16:56.780Z,5.80
2023-01-26T00:18:58.449Z,5.53
2023-01-26T00:21:01.785Z,5.55
2023-01-26T00:23:03.438Z,5.80
2023-01-26T00:25:05.398Z,5.80
2023-01-26T00:27:06.940Z,5.45
2023-01-26T00:29:09.707Z,5.80
2023-01-26T00:31:18.350Z,6.18
2023-01-26T00:33:19.993Z,5.13
2023-01-26T00:35:21.552Z,5.70
2023-01-26T00:37:23.188Z,5.45
2023-01-26T00:39:24.852Z,6.50
2023-01-26T00:41:44.651Z,5.68
2023-01-26T00:43:46.240Z,6.30
2023-01-26T00:45:47.910Z,5.70
2023-01-26T00:47:49.600Z,5.85
2023-01-26T00:49:51.340Z,6.05
2023-01-26T00:51:52.904Z,6.30
2023-01-26T00:53:54.533Z,6.32
2023-01-26T00:55:58.127Z,5.90
2023-01-26T00:58:00.700Z,6.40
2023-01-26T01:00:02.343Z,6.63
2023-01-26T01:02:04.344Z,6.60
2023-01-26T01:04:06.006Z,6.38
2023-01-26T01:06:07.610Z,6.50
2023-01-26T01:08:09.233Z,6.78
2023-01-26T01:10:11.622Z,6.25
2023-01-26T01:12:13.309Z,6.40
2023-01-26T01:14:15.445Z,6.57
2023-01-26T01:16:17.383Z,6.38
2023-01-26T01:18:19.073Z,6.85
2023-01-26T01:20:20.773Z,7.28
2023-01-26T01:22:22.493Z,5.65
2023-01-26T01:24:24.200Z,5.75
2023-01-26T01:26:26.623Z,5.95
2023-01-26T01:28:28.686Z,6.13
2023-01-26T01:30:30.308Z,6.45
2023-01-26T01:32:31.873Z,5.72
2023-01-26T01:34:33.462Z,5.90
2023-01-26T01:36:35.131Z,6.03
2023-01-26T01:38:36.728Z,6.45
2023-01-26T01:40:43.370Z,5.63
2023-01-26T01:42:48.821Z,6.28
2023-01-26T01:45:21.399Z,5.05
2023-01-26T01:47:26.712Z,5.90
2023-01-26T01:49:31.970Z,6.03
2023-01-26T01:51:51.471Z,5.15
2023-01-26T01:53:54.510Z,5.13
2023-01-26T01:55:59.197Z,5.80
2023-01-26T01:58:01.888Z,6.15
2023-01-26T02:00:09.111Z,5.72
2023-01-26T02:02:10.935Z,5.65
2023-01-26T02:04:12.640Z,5.60
2023-01-26T02:06:16.753Z,6.28
2023-01-26T02:08:19.811Z,5.82
2023-01-26T02:10:21.786Z,5.75
2023-01-26T02:12:27.932Z,5.78
2023-01-26T02:14:29.699Z,5.38
2023-01-26T02:16:31.313Z,4.90
2023-01-26T02:18:33.090Z,5.00
2023-01-26T02:20:47.269Z,5.15
2023-01-26T02:22:55.105Z,5.35
2023-01-26T02:24:59.729Z,5.55
2023-01-26T02:27:01.581Z,5.28
2023-01-26T02:29:05.031Z,4.70
2023-01-26T02:31:06.887Z,4.88
2023-01-26T02:33:15.349Z,5.57
2023-01-26T02:35:16.989Z,4.97
2023-01-26T02:37:18.603Z,5.53
2023-01-26T02:39:32.364Z,4.97
2023-01-26T02:41:52.787Z,5.45
2023-01-26T02:43:54.419Z,5.88
2023-01-26T02:45:56.067Z,5.43
2023-01-26T02:47:58.016Z,5.50
2023-01-26T02:50:00.653Z,5.38
2023-01-26T02:52:02.266Z,5.57
2023-01-26T02:54:03.989Z,5.50
2023-01-26T02:56:05.971Z,5.55
2023-01-26T02:58:08.206Z,5.70
2023-01-26T03:00:12.738Z,5.13
2023-01-26T03:02:15.792Z,4.70
2023-01-26T03:04:17.418Z,4.95
2023-01-26T03:06:19.029Z,5.03
2023-01-26T03:08:20.625Z,5.45
2023-01-26T03:10:24.276Z,4.57
2023-01-26T03:12:26.338Z,4.70
2023-01-26T03:14:27.988Z,5.25
2023-01-26T03:16:29.596Z,5.25
2023-01-26T03:18:49.451Z,4.97
2023-01-26T03:21:09.908Z,5.07
2023-01-26T03:23:30.006Z,4.70
2023-01-26T03:25:49.983Z,4.90
2023-01-26T03:27:51.575Z,5.40
2023-01-26T03:29:54.057Z,5.00
2023-01-26T03:31:55.672Z,5.15
2023-01-26T03:33:57.295Z,5.43
2023-01-26T03:35:58.982Z,5.15
2023-01-26T03:38:00.604Z,5.30
2023-01-26T03:40:21.717Z,5.45
2023-01-26T03:42:41.813Z,4.85
2023-01-26T03:45:01.674Z,4.88
2023-01-26T03:47:21.897Z,5.70
2023-01-26T03:49:41.909Z,5.97
2023-01-26T03:52:01.704Z,5.53
2023-01-26T03:54:22.149Z,5.32
2023-01-26T03:56:32.349Z,4.95
2023-01-26T03:58:34.041Z,5.47
2023-01-26T04:00:35.609Z,4.95
2023-01-26T04:02:55.534Z,5.55
2023-01-26T04:05:15.945Z,5.25
2023-01-26T04:07:37.581Z,5.45
2023-01-26T04:09:42.029Z,5.18
2023-01-26T04:11:43.803Z,4.90
2023-01-26T04:14:03.854Z,4.85
2023-01-26T04:16:24.725Z,5.18
2023-01-26T04:18:44.811Z,5.43
2023-01-26T04:21:04.905Z,5.20
2023-01-26T04:23:06.525Z,5.20
2023-01-26T04:25:09.265Z,4.80
2023-01-26T04:27:11.792Z,4.90
2023-01-26T04:29:15.054Z,5.10
2023-01-26T04:31:16.898Z,5.38
2023-01-26T04:33:18.544Z,5.07
2023-01-26T04:35:20.202Z,4.60
2023-01-26T04:37:22.368Z,5.15
2023-01-26T04:39:24.025Z,5.38
2023-01-26T04:41:25.707Z,5.55
2023-01-26T04:43:27.440Z,5.40
2023-01-26T04:45:29.031Z,5.05
2023-01-26T04:47:30.775Z,5.70
2023-01-26T04:49:32.426Z,6.15
2023-01-26T04:51:34.336Z,5.20
2023-01-26T04:53:35.958Z,5.28
2023-01-26T04:55:37.603Z,5.65
2023-01-26T04:57:39.285Z,5.40
2023-01-26T04:59:40.894Z,5.50
2023-01-26T05:01:42.809Z,5.25
2023-01-26T05:03:44.698Z,5.63
2023-01-26T05:05:50.062Z,5.30
2023-01-26T05:07:53.365Z,5.22
2023-01-26T05:09:55.755Z,5.13
2023-01-26T05:12:17.366Z,4.30
2023-01-26T05:14:19.030Z,5.07
2023-01-26T05:16:20.793Z,5.43
2023-01-26T05:18:22.419Z,4.93
2023-01-26T05:20:23.997Z,5.47
2023-01-26T05:22:25.623Z,4.95
2023-01-26T05:24:27.223Z,5.78
2023-01-26T05:26:28.839Z,5.72
2023-01-26T05:28:30.646Z,5.80
2023-01-26T05:30:32.379Z,5.13
2023-01-26T05:32:34.011Z,4.97
2023-01-26T05:34:35.573Z,4.70
2023-01-26T05:36:37.373Z,5.00
2023-01-26T05:38:39.070Z,5.20
2023-01-26T05:40:40.672Z,5.57
2023-01-26T05:42:44.116Z,5.45
2023-01-26T05:44:45.755Z,5.82
2023-01-26T05:46:47.367Z,6.10
2023-01-26T05:48:48.985Z,5.18
2023-01-26T05:50:50.583Z,6.25
2023-01-26T05:52:52.160Z,6.10
2023-01-26T05:54:53.778Z,5.78
2023-01-26T05:56:57.444Z,5.97
2023-01-26T05:58:59.134Z,6.00
2023-01-26T06:01:04.529Z,5.65
2023-01-26T06:03:06.121Z,6.93
2023-01-26T06:05:08.543Z,6.72
2023-01-26T06:07:10.392Z,6.70
2023-01-26T06:09:12.199Z,7.45
2023-01-26T06:11:13.840Z,7.65
2023-01-26T06:13:15.440Z,6.68
2023-01-26T06:15:17.096Z,7.15
2023-01-26T06:17:18.827Z,7.00
2023-01-26T06:19:20.501Z,7.07
2023-01-26T06:21:22.342Z,8.25
2023-01-26T06:23:24.156Z,7.03
2023-01-26T06:25:25.736Z,7.82
2023-01-26T06:27:27.337Z,7.97
2023-01-26T06:29:29.503Z,6.97
2023-01-26T06:31:31.366Z,8.10
2023-01-26T06:33:34.946Z,7.55
2023-01-26T06:35:36.645Z,6.95
2023-01-26T06:37:38.483Z,7.50
2023-01-26T06:39:41.665Z,8.18
2023-01-26T06:41:44.494Z,7.70
2023-01-26T06:43:48.287Z,7.85
2023-01-26T06:45:49.904Z,8.02
2023-01-26T06:47:52.199Z,7.88
2023-01-26T06:49:54.354Z,9.50
2023-01-26T06:52:04.541Z,8.38
2023-01-26T06:54:06.222Z,7.25
2023-01-26T06:56:07.873Z,8.60
2023-01-26T06:58:09.431Z,8.45
2023-01-26T07:00:12.671Z,8.25
2023-01-26T07:02:20.165Z,7.30
2023-01-26T07:04:26.002Z,7.80
2023-01-26T07:06:27.598Z,8.15
2023-01-26T07:08:29.467Z,8.15
2023-01-26T07:10:31.098Z,7.13
2023-01-26T07:12:43.226Z,8.57
2023-01-26T07:14:44.799Z,8.90
2023-01-26T07:16:46.392Z,7.50
2023-01-26T07:18:48.012Z,7.70
2023-01-26T07:20:49.659Z,7.53
2023-01-26T07:22:51.852Z,9.05
2023-01-26T07:24:53.623Z,8.10
2023-01-26T07:26:56.181Z,7.95
2023-01-26T07:28:57.750Z,8.00
2023-01-26T07:31:00.156Z,7.28
2023-01-26T07:33:01.858Z,8.13
2023-01-26T07:35:03.828Z,7.88
2023-01-26T07:37:05.481Z,7.95
2023-01-26T07:39:08.604Z,7.70
2023-01-26T07:41:12.510Z,8.13
2023-01-26T07:43:15.347Z,8.27
2023-01-26T07:45:19.771Z,7.13
2023-01-26T07:47:21.331Z,7.65
2023-01-26T07:49:22.926Z,6.70
2023-01-26T07:51:24.589Z,7.00
2023-01-26T07:53:29.240Z,7.07
2023-01-26T07:55:31.074Z,6.70
2023-01-26T07:57:33.969Z,6.93
2023-01-26T07:59:35.657Z,7.43
2023-01-26T08:01:37.343Z,5.78
2023-01-26T08:03:39.511Z,6.35
2023-01-26T08:05:43.601Z,6.60
2023-01-26T08:09:46.771Z,6.25
2023-01-26T08:11:48.639Z,6.65
2023-01-26T08:13:50.223Z,6.18
2023-01-26T08:15:52.127Z,5.57
2023-01-26T08:17:54.661Z,6.53
2023-01-26T08:19:56.257Z,5.93
2023-01-26T08:21:58.085Z,6.93
2023-01-26T08:24:02.095Z,6.43
2023-01-26T08:26:06.160Z,5.80
2023-01-26T08:28:07.882Z,7.05
2023-01-26T08:30:10.328Z,6.15
2023-01-26T08:32:12.495Z,6.07
2023-01-26T08:34:14.145Z,6.50
2023-01-26T08:36:15.770Z,5.65
2023-01-26T08:38:17.503Z,5.50
2023-01-26T08:40:19.249Z,6.00
2023-01-26T08:42:22.565Z,5.18
2023-01-26T08:44:24.443Z,6.68
2023-01-26T08:46:26.570Z,5.18
2023-01-26T08:48:29.560Z,5.88
2023-01-26T08:50:31.194Z,5.63
2023-01-26T08:52:32.826Z,5.63
2023-01-26T08:54:34.455Z,5.10
2023-01-26T08:56:36.145Z,4.93
2023-01-26T08:58:38.047Z,4.78
2023-01-26T09:00:39.872Z,5.00
2023-01-26T09:02:41.568Z,5.40
2023-01-26T09:04:43.198Z,5.00
2023-01-26T09:06:44.838Z,4.90
2023-01-26T09:08:46.416Z,4.43
2023-01-26T09:10:47.984Z,4.43
2023-01-26T09:12:49.560Z,4.35
2023-01-26T09:14:51.120Z,4.15
2023-01-26T09:16:52.750Z,4.07
2023-01-26T09:18:54.659Z,3.85
2023-01-26T09:21:02.819Z,4.05
2023-01-26T09:23:04.581Z,4.68
2023-01-26T09:25:06.755Z,3.88
2023-01-26T09:27:09.151Z,3.85
2023-01-26T09:29:10.864Z,4.20
2023-01-26T09:31:12.810Z,4.40
2023-01-26T09:33:14.466Z,4.15
2023-01-26T09:35:16.555Z,4.10
2023-01-26T09:37:18.803Z,4.38
2023-01-26T09:39:20.389Z,4.25
2023-01-26T09:41:41.052Z,4.22
2023-01-26T09:44:05.103Z,3.90
2023-01-26T09:46:09.684Z,3.83
2023-01-26T09:48:34.938Z,4.03
2023-01-26T09:50:42.137Z,3.35
2023-01-26T09:52:54.599Z,3.85
2023-01-26T09:54:59.255Z,3.58
2023-01-26T09:57:13.774Z,3.20
2023-01-26T09:59:38.566Z,3.70
2023-01-26T10:02:07.700Z,4.18
2023-01-26T10:04:23.266Z,4.00
2023-01-26T10:06:28.557Z,3.55
2023-01-26T10:08:30.813Z,3.63
2023-01-26T10:10:41.583Z,3.60
2023-01-26T10:12:43.362Z,3.42
2023-01-26T10:14:50.139Z,3.55
2023-01-26T10:16:53.305Z,3.33
2023-01-26T10:19:00.642Z,3.08
2023-01-26T10:21:04.327Z,3.40
2023-01-26T10:23:12.118Z,3.30
2023-01-26T10:25:28.233Z,3.42
2023-01-26T10:27:29.874Z,3.33
2023-01-26T10:29:31.494Z,3.55
2023-01-26T10:31:34.531Z,3.25
2023-01-26T10:33:37.764Z,4.40
2023-01-26T10:35:39.555Z,3.78
2023-01-26T10:37:41.333Z,3.00
2023-01-26T10:40:12.280Z,3.30
2023-01-26T10:42:18.408Z,3.30
2023-01-26T10:44:33.307Z,4.53
2023-01-26T10:46:38.032Z,3.58
2023-01-26T10:48:39.791Z,3.08
2023-01-26T10:50:41.484Z,3.13
2023-01-26T10:52:58.253Z,3.63
2023-01-26T10:55:17.306Z,3.47
2023-01-26T10:57:19.512Z,4.15
2023-01-26T10:59:44.071Z,3.08
2023-01-26T11:01:54.000Z,3.40
2023-01-26T11:04:06.038Z,3.10
2023-01-26T11:06:14.821Z,3.60
2023-01-26T11:08:34.814Z,3.70
2023-01-26T11:10:38.377Z,4.13
2023-01-26T11:12:40.051Z,3.78
2023-01-26T11:14:41.623Z,3.53
2023-01-26T11:16:49.834Z,3.55
2023-01-26T11:19:19.516Z,2.72
2023-01-26T11:21:32.158Z,3.25
2023-01-26T11:23:42.743Z,3.67
2023-01-26T11:26:09.421Z,3.03
2023-01-26T11:28:28.323Z,3.25
2023-01-26T11:30:40.450Z,2.85
2023-01-26T11:32:57.300Z,3.10
2023-01-26T11:35:14.393Z,3.67
2023-01-26T11:37:27.903Z,3.20
2023-01-26T11:39:42.102Z,3.27
2023-01-26T11:41:58.379Z,3.05
2023-01-26T11:44:30.371Z,2.95
2023-01-26T11:46:52.947Z,3.55
2023-01-26T11:49:07.467Z,4.13
2023-01-26T11:51:41.422Z,3.65
2023-01-26T11:54:03.829Z,3.25
2023-01-26T11:56:33.839Z,3.33
2023-01-26T11:58:36.935Z,3.72
2023-01-26T12:00:43.707Z,3.63
2023-01-26T12:02:54.320Z,3.33
2023-01-26T12:04:58.906Z,3.60
2023-01-26T12:07:05.339Z,3.42
2023-01-26T12:09:33.412Z,3.53
2023-01-26T12:11:56.253Z,3.45
2023-01-26T12:14:18.833Z,3.63
2023-01-26T12:16:42.273Z,8.07
2023-01-26T12:19:09.810Z,4.13
2023-01-26T12:21:12.231Z,4.38
2023-01-26T12:23:19.174Z,4.35
2023-01-26T12:25:40.373Z,4.47
2023-01-26T12:27:49.830Z,5.20
2023-01-26T12:30:19.234Z,4.57
2023-01-26T12:32:22.638Z,4.45
2023-01-26T12:34:30.037Z,5.13
2023-01-26T12:36:51.124Z,5.05
2023-01-26T12:38:58.445Z,5.20
2023-01-26T12:41:35.640Z,5.50
2023-01-26T12:43:57.986Z,5.18
2023-01-26T12:46:00.917Z,5.65
2023-01-26T12:48:14.884Z,5.10
2023-01-26T12:50:37.670Z,5.38
2023-01-26T12:52:54.789Z,5.07
2023-01-26T12:55:20.448Z,4.75
2023-01-26T12:57:26.624Z,5.60
2023-01-26T12:59:46.805Z,5.43
2023-01-26T13:01:50.487Z,5.60
2023-01-26T13:04:00.354Z,4.47
2023-01-26T13:06:19.291Z,5.63
2023-01-26T13:08:30.202Z,6.07
2023-01-26T13:10:45.258Z,5.53
2023-01-26T13:12:47.933Z,5.40
2023-01-26T13:14:49.550Z,5.47
2023-01-26T13:16:51.262Z,5.95
2023-01-26T13:18:57.615Z,5.70
2023-01-26T13:20:59.442Z,5.00
2023-01-26T13:23:01.176Z,5.57
2023-01-26T13:25:19.403Z,5.45
2023-01-26T13:27:39.204Z,5.15
2023-01-26T13:29:55.384Z,5.57
2023-01-26T13:32:23.063Z,6.40
2023-01-26T13:34:47.239Z,5.95
2023-01-26T13:36:49.561Z,6.75
2023-01-26T13:39:04.228Z,6.28
2023-01-26T13:41:21.158Z,6.85
2023-01-26T13:43:28.528Z,7.10
2023-01-26T13:45:38.752Z,6.05
2023-01-26T13:47:46.180Z,6.07
2023-01-26T13:49:50.449Z,6.43
2023-01-26T13:51:52.154Z,6.07
2023-01-26T13:54:06.883Z,5.68
2023-01-26T13:56:21.668Z,5.68
2023-01-26T13:58:23.654Z,5.70
2023-01-26T14:00:25.364Z,5.82
2023-01-26T14:02:32.749Z,6.20
2023-01-26T14:04:35.351Z,7.22
2023-01-26T14:06:37.774Z,6.88
2023-01-26T14:08:39.579Z,6.15
2023-01-26T14:10:44.165Z,6.65
2023-01-26T14:12:47.410Z,6.60
2023-01-26T14:14:51.803Z,7.13
2023-01-26T14:16:53.645Z,6.38
2023-01-26T14:19:05.859Z,7.43
2023-01-26T14:21:20.711Z,7.18
2023-01-26T14:23:22.292Z,6.68
2023-01-26T14:25:23.901Z,6.70
2023-01-26T14:27:40.081Z,6.32
2023-01-26T14:29:41.688Z,6.20
2023-01-26T14:31:43.287Z,5.90
2023-01-26T14:33:45.235Z,6.05
2023-01-26T14:35:58.811Z,6.05
2023-01-26T14:38:06.701Z,6.70
2023-01-26T14:40:24.868Z,6.57
2023-01-26T14:42:26.528Z,6.13
2023-01-26T14:44:28.217Z,6.68
2023-01-26T14:46:36.074Z,6.13
2023-01-26T14:48:46.525Z,6.38
2023-01-26T14:50:48.394Z,6.40
2023-01-26T14:52:50.340Z,5.85
2023-01-26T14:55:32.246Z,5.85
2023-01-26T14:57:33.950Z,5.82
2023-01-26T14:59:39.965Z,5.93
2023-01-26T15:01:41.763Z,5.85
2023-01-26T15:03:43.421Z,5.75
2023-01-26T15:05:45.128Z,5.70
2023-01-26T15:07:49.375Z,6.43
2023-01-26T15:09:53.845Z,5.88
2023-01-26T15:12:15.866Z,5.60
2023-01-26T15:14:45.803Z,6.20
2023-01-26T15:16:53.774Z,6.65
2023-01-26T15:19:03.902Z,6.05
2023-01-26T15:21:14.642Z,7.68
2023-01-26T15:23:26.475Z,5.97
2023-01-26T15:25:29.573Z,5.32
2023-01-26T15:27:33.146Z,5.20
2023-01-26T15:29:34.954Z,6.15
2023-01-26T15:31:42.400Z,7.63
2023-01-26T15:33:44.084Z,8.00
2023-01-26T15:35:57.480Z,8.45
2023-01-26T15:38:03.830Z,8.43
2023-01-26T15:40:05.869Z,8.20
2023-01-26T15:42:14.111Z,8.20
2023-01-26T15:44:20.232Z,8.88
2023-01-26T15:46:21.908Z,10.00
2023-01-26T15:48:24.545Z,10.48
2023-01-26T15:50:28.203Z,9.85
2023-01-26T15:54:32.293Z,10.15
2023-01-26T15:56:33.953Z,9.88
2023-01-26T15:58:36.848Z,9.20
2023-01-26T16:00:39.152Z,9.57
2023-01-26T16:02:40.817Z,10.05
2023-01-26T16:04:42.867Z,9.27
2023-01-26T16:06:44.472Z,9.18
2023-01-26T16:08:46.081Z,9.98
2023-01-26T16:10:47.826Z,10.95
2023-01-26T16:12:50.923Z,10.52
2023-01-26T16:14:52.524Z,10.07
2023-01-26T16:16:54.166Z,10.35
2023-01-26T16:18:56.276Z,10.75
2023-01-26T16:20:57.956Z,10.90
2023-01-26T16:22:59.887Z,10.18
2023-01-26T16:25:01.451Z,11.48
2023-01-26T16:27:03.351Z,10.60
2023-01-26T16:29:04.925Z,10.65
2023-01-26T16:31:16.552Z,10.23
2023-01-26T16:33:24.530Z,10.65
2023-01-26T16:35:26.420Z,11.20
2023-01-26T16:37:28.035Z,10.93
2023-01-26T16:39:29.670Z,11.50
2023-01-26T16:41:32.592Z,10.90
2023-01-26T16:43:34.261Z,11.82
2023-01-26T16:45:35.893Z,12.18
2023-01-26T16:47:37.538Z,12.30
2023-01-26T16:49:39.209Z,11.60
2023-01-26T16:51:42.575Z,12.23
2023-01-26T16:53:44.466Z,11.75
2023-01-26T16:55:46.043Z,12.93
2023-01-26T16:57:49.894Z,12.57
2023-01-26T17:01:53.291Z,13.35
2023-01-26T17:03:56.124Z,13.32
2023-01-26T17:05:57.861Z,13.77
2023-01-26T17:07:59.463Z,11.13
2023-01-26T17:10:01.133Z,10.02
2023-01-26T17:12:02.883Z,9.27
2023-01-26T17:14:04.636Z,9.05
2023-01-26T17:16:12.676Z,9.02
2023-01-26T17:18:14.315Z,9.10
2023-01-26T17:20:19.649Z,8.27
2023-01-26T17:22:21.693Z,8.85
2023-01-26T17:24:23.394Z,9.02
2023-01-26T17:26:25.059Z,10.60
2023-01-26T17:28:30.155Z,9.95
2023-01-26T17:30:31.838Z,10.65
2023-01-26T17:32:33.612Z,11.85
2023-01-26T17:34:35.267Z,12.88
2023-01-26T17:36:36.880Z,14.38
2023-01-26T17:38:38.513Z,15.23
2023-01-26T17:40:40.286Z,15.52
2023-01-26T17:42:41.858Z,17.23
2023-01-26T17:44:43.479Z,18.45
2023-01-26T17:46:45.173Z,17.98
2023-01-26T17:48:47.541Z,18.63
2023-01-26T17:50:49.789Z,18.17
2023-01-26T17:52:51.591Z,20.00
2023-01-26T17:54:53.327Z,19.42
2023-01-26T17:56:55.645Z,20.02
2023-01-26T17:58:57.279Z,20.98
2023-01-26T18:00:59.124Z,18.85
2023-01-26T18:03:00.714Z,20.13
2023-01-26T18:05:02.281Z,21.55
2023-01-26T18:07:04.026Z,19.90
2023-01-26T18:09:06.703Z,19.33
2023-01-26T18:11:13.078Z,23.20
2023-01-26T18:13:15.362Z,23.55
2023-01-26T18:15:17.102Z,23.90
2023-01-26T18:17:18.780Z,22.42
2023-01-26T18:19:20.448Z,20.65
2023-01-26T18:21:24.121Z,20.83
2023-01-26T18:23:25.848Z,24.70
2023-01-26T18:25:27.651Z,23.88
2023-01-26T18:27:29.266Z,23.27
2023-01-26T18:29:30.818Z,22.05
2023-01-26T18:31:34.778Z,23.73
2023-01-26T18:33:36.497Z,22.48
2023-01-26T18:35:38.112Z,23.35
2023-01-26T18:37:39.774Z,21.52
2023-01-26T18:39:41.402Z,21.33
2023-01-26T18:41:43.589Z,21.52
2023-01-26T18:43:45.772Z,21.60
2023-01-26T18:45:47.471Z,22.00
2023-01-26T18:47:49.896Z,20.88
2023-01-26T18:49:52.456Z,19.63
2023-01-26T18:51:54.255Z,21.52
2023-01-26T18:53:55.937Z,19.67
2023-01-26T18:56:08.640Z,18.70
2023-01-26T18:58:10.275Z,18.70
2023-01-26T19:00:13.945Z,17.75
2023-01-26T19:02:15.749Z,16.63
2023-01-26T19:04:18.450Z,16.40
2023-01-26T19:06:20.375Z,16.23
2023-01-26T19:08:24.844Z,17.13
2023-01-26T19:10:26.480Z,16.85
2023-01-26T19:12:28.042Z,16.08
2023-01-26T19:14:30.009Z,18.35
2023-01-26T19:16:32.186Z,16.70
2023-01-26T19:18:33.797Z,17.05
2023-01-26T19:20:35.386Z,15.52
2023-01-26T19:22:37.012Z,16.50
2023-01-26T19:24:38.716Z,16.35
2023-01-26T19:26:40.317Z,16.88
2023-01-26T19:28:42.157Z,18.85
2023-01-26T19:30:44.446Z,16.98
2023-01-26T19:33:10.295Z,17.70
2023-01-26T19:35:14.490Z,18.52
2023-01-26T19:37:16.523Z,19.40
2023-01-26T19:39:18.276Z,18.75
2023-01-26T19:41:20.712Z,19.88
2023-01-26T19:43:22.378Z,20.00
2023-01-26T19:45:24.208Z,17.58
2023-01-26T19:47:25.773Z,17.67
2023-01-26T19:49:27.458Z,16.73
2023-01-26T19:51:29.548Z,15.40
2023-01-26T19:53:32.631Z,13.60
2023-01-26T19:55:34.810Z,15.10
2023-01-26T19:57:36.386Z,13.90
2023-01-26T19:59:37.984Z,14.50
2023-01-26T20:01:39.579Z,14.57
2023-01-26T20:03:41.226Z,14.43
2023-01-26T20:05:42.874Z,14.57
2023-01-26T20:07:44.957Z,15.70
2023-01-26T20:09:46.625Z,14.65
2023-01-26T20:11:49.135Z,14.88
2023-01-26T20:14:04.088Z,14.98
2023-01-26T20:16:09.855Z,14.93
2023-01-26T20:18:11.802Z,13.55
2023-01-26T20:20:13.700Z,13.95
2023-01-26T20:22:15.373Z,13.93
2023-01-26T20:24:17.557Z,15.85
2023-01-26T20:26:19.935Z,14.13
2023-01-26T20:28:21.568Z,14.38
2023-01-26T20:30:23.208Z,16.17
2023-01-26T20:32:24.789Z,15.80
2023-01-26T20:34:27.367Z,15.65
2023-01-26T20:36:29.294Z,16.25
2023-01-26T20:38:30.906Z,15.20
2023-01-26T20:40:32.543Z,15.30
2023-01-26T20:42:34.127Z,15.18
2023-01-26T20:44:35.691Z,16.27
2023-01-26T20:46:39.488Z,14.15
2023-01-26T20:48:41.703Z,14.20
2023-01-26T20:50:44.995Z,12.65
2023-01-26T20:52:46.777Z,13.77
2023-01-26T20:54:48.345Z,13.13
2023-01-26T20:56:51.378Z,12.68
2023-01-26T20:58:54.086Z,11.15
2023-01-26T21:01:03.647Z,11.48
2023-01-26T21:03:05.786Z,10.70
2023-01-26T21:05:08.543Z,10.73
2023-01-26T21:07:10.343Z,10.70
2023-01-26T21:09:12.981Z,10.52
2023-01-26T21:11:17.312Z,9.82
2023-01-26T21:13:19.457Z,10.73
2023-01-26T21:15:21.187Z,10.73
2023-01-26T21:17:23.079Z,10.35
2023-01-26T21:19:24.683Z,9.35
2023-01-26T21:21:26.520Z,9.38
2023-01-26T21:23:28.079Z,10.07
2023-01-26T21:25:29.676Z,10.07
2023-01-26T21:27:31.549Z,10.80
2023-01-26T21:29:33.171Z,11.27
2023-01-26T21:31:34.872Z,10.88
2023-01-26T21:33:38.685Z,10.40
2023-01-26T21:35:40.361Z,9.00
2023-01-26T21:37:42.031Z,10.07
2023-01-26T21:39:43.839Z,9.75
2023-01-26T21:41:57.488Z,8.95
2023-01-26T21:44:02.623Z,10.00
2023-01-26T21:46:04.430Z,9.75
2023-01-26T21:48:25.561Z,11.00
2023-01-26T21:50:47.134Z,10.90
2023-01-26T21:52:57.667Z,9.35
2023-01-26T21:54:59.378Z,10.50
2023-01-26T21:57:02.127Z,9.10
2023-01-26T21:59:42.315Z,8.40
2023-01-26T22:01:46.268Z,8.57
2023-01-26T22:05:53.460Z,7.57
2023-01-26T22:07:55.071Z,7.22
2023-01-26T22:09:56.876Z,7.38
2023-01-26T22:11:58.438Z,8.63
2023-01-26T22:14:00.433Z,9.35
2023-01-26T22:16:04.386Z,8.30
2023-01-26T22:18:06.294Z,7.95
2023-01-26T22:20:09.585Z,8.25
2023-01-26T22:22:11.221Z,8.20
2023-01-26T22:24:14.422Z,8.20
2023-01-26T22:26:19.584Z,8.25
2023-01-26T22:28:21.143Z,7.93
2023-01-26T22:30:22.743Z,8.52
2023-01-26T22:32:24.419Z,8.32
2023-01-26T22:34:26.425Z,7.70
2023-01-26T22:36:28.538Z,7.85
2023-01-26T22:38:31.460Z,7.80
2023-01-26T22:40:33.183Z,9.73
2023-01-26T22:42:34.770Z,9.05
2023-01-26T22:44:36.631Z,10.35
2023-01-26T22:46:38.484Z,10.00
2023-01-26T22:48:40.199Z,9.60
2023-01-26T22:50:42.272Z,9.30
2023-01-26T22:52:43.946Z,8.52
2023-01-26T22:54:45.655Z,9.30
2023-01-26T22:56:47.215Z,9.95
2023-01-26T22:58:57.948Z,8.90
2023-01-26T23:01:14.732Z,8.25
2023-01-26T23:03:16.423Z,9.25
2023-01-26T23:05:18.010Z,9.27
2023-01-26T23:07:19.614Z,9.38
2023-01-26T23:09:21.229Z,8.30
2023-01-26T23:11:25.034Z,8.10
2023-01-26T23:13:26.674Z,8.73
2023-01-26T23:15:28.280Z,8.98
2023-01-26T23:17:29.894Z,12.18
2023-01-26T23:19:33.661Z,12.93
2023-01-26T23:21:35.302Z,9.40
2023-01-26T23:23:38.783Z,9.07
2023-01-26T23:25:52.734Z,10.23
2023-01-26T23:27:54.317Z,9.02
2023-01-26T23:29:55.948Z,9.63
2023-01-26T23:31:57.634Z,8.85
2023-01-26T23:33:59.489Z,9.02
2023-01-26T23:36:01.612Z,8.98
2023-01-26T23:38:04.100Z,10.43
2023-01-26T23:40:06.409Z,10.27
2023-01-26T23:42:07.998Z,10.25
2023-01-26T23:44:09.997Z,11.05
2023-01-26T23:46:11.943Z,10.50
2023-01-26T23:48:14.206Z,9.88
2023-01-26T23:50:16.093Z,10.00
2023-01-26T23:52:17.663Z,9.52
2023-01-26T23:54:19.347Z,9.90
2023-01-26T23:56:20.932Z,9.85
2023-01-26T23:58:22.538Z,8.95
